sensor_id;sensor_type;location;lat;lon;timestamp;temperature;humidity
782;DHT22;374;52.568;13.402;2024-02-23T05:22:14;11.40;99.90
782;DHT22;374;52.568;13.402;2024-02-23T05:39:17;11.30;99.90
782;DHT22;374;52.568;13.402;2024-02-23T05:44:09;11.30;99.90
782;DHT22;374;52.568;13.402;2024-02-23T05:46:35;11.90;99.90
782;DHT22;374;52.568;13.402;2024-02-23T06:03:41;11.10;99.90
782;DHT22;374;52.568;13.402;2024-02-23T06:06:07;11.00;99.90
782;DHT22;374;52.568;13.402;2024-02-23T06:11:02;11.10;99.90
782;DHT22;374;52.568;13.402;2024-02-23T06:18:20;11.00;99.90
782;DHT22;374;52.568;13.402;2024-02-23T06:30:31;11.00;99.90
782;DHT22;374;52.568;13.402;2024-02-23T06:35:26;11.10;99.90
782;DHT22;374;52.568;13.402;2024-02-23T06:40:17;11.10;99.90
782;DHT22;374;52.568;13.402;2024-02-23T06:42:43;10.80;99.90
782;DHT22;374;52.568;13.402;2024-02-23T06:50:33;10.90;99.90
782;DHT22;374;52.568;13.402;2024-02-23T06:55:25;10.90;99.90
782;DHT22;374;52.568;13.402;2024-02-23T07:02:49;11.00;99.90
782;DHT22;374;52.568;13.402;2024-02-23T07:17:31;10.90;99.90
782;DHT22;374;52.568;13.402;2024-02-23T07:34:41;10.50;99.90
782;DHT22;374;52.568;13.402;2024-02-23T07:46:50;10.30;99.90
782;DHT22;374;52.568;13.402;2024-02-23T07:49:19;10.20;99.90
782;DHT22;374;52.568;13.402;2024-02-23T07:51:45;11.20;99.90
782;DHT22;374;52.568;13.402;2024-02-23T07:54:10;11.50;99.90
782;DHT22;374;52.568;13.402;2024-02-23T08:06:23;10.40;99.90
782;DHT22;374;52.568;13.402;2024-02-23T08:11:15;10.30;99.90
782;DHT22;374;52.568;13.402;2024-02-23T08:21:02;10.00;99.90
782;DHT22;374;52.568;13.402;2024-02-23T08:23:30;10.50;99.90
782;DHT22;374;52.568;13.402;2024-02-23T08:28:23;10.00;99.90
782;DHT22;374;52.568;13.402;2024-02-23T08:30:49;11.10;99.90
782;DHT22;374;52.568;13.402;2024-02-23T08:35:41;10.20;99.90
782;DHT22;374;52.568;13.402;2024-02-23T08:38:06;10.90;99.90
782;DHT22;374;52.568;13.402;2024-02-23T08:40:32;9.60;99.90
782;DHT22;374;52.568;13.402;2024-02-23T08:42:58;10.40;99.90
782;DHT22;374;52.568;13.402;2024-02-23T08:52:44;10.20;99.90
782;DHT22;374;52.568;13.402;2024-02-23T08:55:12;10.70;99.90
782;DHT22;374;52.568;13.402;2024-02-23T08:57:41;9.90;99.90
782;DHT22;374;52.568;13.402;2024-02-23T09:02:35;10.20;99.90
782;DHT22;374;52.568;13.402;2024-02-23T09:05:03;10.20;99.90
782;DHT22;374;52.568;13.402;2024-02-23T09:09:56;10.20;99.90
782;DHT22;374;52.568;13.402;2024-02-23T09:12:22;9.80;99.90
782;DHT22;374;52.568;13.402;2024-02-23T09:17:14;10.10;99.90
782;DHT22;374;52.568;13.402;2024-02-23T09:19:39;9.30;99.90
782;DHT22;374;52.568;13.402;2024-02-23T09:22:05;10.20;99.90
782;DHT22;374;52.568;13.402;2024-02-23T09:24:31;10.40;99.90
782;DHT22;374;52.568;13.402;2024-02-23T09:29:22;10.30;99.90
782;DHT22;374;52.568;13.402;2024-02-23T09:31:48;10.50;99.90
782;DHT22;374;52.568;13.402;2024-02-23T09:34:14;10.30;99.90
782;DHT22;374;52.568;13.402;2024-02-23T09:39:09;10.20;99.90
782;DHT22;374;52.568;13.402;2024-02-23T09:46:36;10.20;99.90
782;DHT22;374;52.568;13.402;2024-02-23T19:32:18;8.60;99.90
782;DHT22;374;52.568;13.402;2024-02-23T19:34:46;8.80;99.90
782;DHT22;374;52.568;13.402;2024-02-23T19:37:18;8.70;99.90
782;DHT22;374;52.568;13.402;2024-02-23T19:39:44;8.80;99.90
782;DHT22;374;52.568;13.402;2024-02-23T19:42:14;8.50;99.90
782;DHT22;374;52.568;13.402;2024-02-23T19:44:42;9.30;99.90
782;DHT22;374;52.568;13.402;2024-02-23T19:47:17;8.00;99.90
782;DHT22;374;52.568;13.402;2024-02-23T19:49:43;8.80;99.90
782;DHT22;374;52.568;13.402;2024-02-23T19:52:17;8.30;99.90
782;DHT22;374;52.568;13.402;2024-02-23T19:54:45;8.80;99.90
782;DHT22;374;52.568;13.402;2024-02-23T19:57:11;8.70;99.90
782;DHT22;374;52.568;13.402;2024-02-23T19:59:40;8.10;99.90
782;DHT22;374;52.568;13.402;2024-02-23T20:02:06;8.90;99.90
782;DHT22;374;52.568;13.402;2024-02-23T20:04:39;8.40;99.90
782;DHT22;374;52.568;13.402;2024-02-23T20:07:05;9.40;99.90
782;DHT22;374;52.568;13.402;2024-02-23T20:09:38;8.00;99.90
782;DHT22;374;52.568;13.402;2024-02-23T20:12:04;8.50;99.90
782;DHT22;374;52.568;13.402;2024-02-23T20:14:30;8.80;99.90
782;DHT22;374;52.568;13.402;2024-02-23T20:16:56;8.30;99.90
782;DHT22;374;52.568;13.402;2024-02-23T20:19:22;8.70;99.90
782;DHT22;374;52.568;13.402;2024-02-23T20:21:47;8.00;99.90
782;DHT22;374;52.568;13.402;2024-02-23T20:24:13;9.70;99.90
782;DHT22;374;52.568;13.402;2024-02-23T20:26:38;8.80;99.90
782;DHT22;374;52.568;13.402;2024-02-23T20:29:04;9.10;99.90
782;DHT22;374;52.568;13.402;2024-02-23T20:31:29;8.30;99.90
782;DHT22;374;52.568;13.402;2024-02-23T20:37:30;8.80;99.90
782;DHT22;374;52.568;13.402;2024-02-23T20:39:57;8.60;99.90
782;DHT22;374;52.568;13.402;2024-02-23T20:42:22;8.90;99.90
782;DHT22;374;52.568;13.402;2024-02-23T20:44:48;7.80;99.90
782;DHT22;374;52.568;13.402;2024-02-23T20:47:13;8.50;99.90
782;DHT22;374;52.568;13.402;2024-02-23T20:49:39;8.50;99.90
782;DHT22;374;52.568;13.402;2024-02-23T20:52:08;8.50;99.90
782;DHT22;374;52.568;13.402;2024-02-23T20:54:41;8.60;99.90
782;DHT22;374;52.568;13.402;2024-02-23T20:57:12;8.10;99.90
782;DHT22;374;52.568;13.402;2024-02-23T21:02:03;8.60;99.90
782;DHT22;374;52.568;13.402;2024-02-23T21:06:55;8.60;99.90
782;DHT22;374;52.568;13.402;2024-02-23T21:14:13;8.60;99.90
782;DHT22;374;52.568;13.402;2024-02-23T21:16:40;8.50;99.90
782;DHT22;374;52.568;13.402;2024-02-23T21:19:05;8.00;99.90
782;DHT22;374;52.568;13.402;2024-02-23T21:21:31;8.20;99.90
782;DHT22;374;52.568;13.402;2024-02-23T21:23:56;8.80;99.90
782;DHT22;374;52.568;13.402;2024-02-23T21:26:23;8.40;99.90
782;DHT22;374;52.568;13.402;2024-02-23T21:28:49;8.40;99.90
782;DHT22;374;52.568;13.402;2024-02-23T21:31:14;8.70;99.90
782;DHT22;374;52.568;13.402;2024-02-23T21:33:40;8.40;99.90
782;DHT22;374;52.568;13.402;2024-02-23T21:36:05;8.30;99.90
782;DHT22;374;52.568;13.402;2024-02-23T21:38:31;8.60;99.90
782;DHT22;374;52.568;13.402;2024-02-23T21:40:56;8.10;99.90
782;DHT22;374;52.568;13.402;2024-02-23T21:43:23;8.90;99.90
782;DHT22;374;52.568;13.402;2024-02-23T21:45:49;9.20;99.90
782;DHT22;374;52.568;13.402;2024-02-23T21:48:14;7.60;99.90
782;DHT22;374;52.568;13.402;2024-02-23T21:50:40;7.90;99.90
782;DHT22;374;52.568;13.402;2024-02-23T21:53:05;8.50;99.90
782;DHT22;374;52.568;13.402;2024-02-23T21:55:31;8.10;99.90
782;DHT22;374;52.568;13.402;2024-02-23T21:57:56;8.20;99.90
782;DHT22;374;52.568;13.402;2024-02-23T22:00:22;9.00;99.90
782;DHT22;374;52.568;13.402;2024-02-23T22:02:49;8.70;99.90
782;DHT22;374;52.568;13.402;2024-02-23T22:05:14;8.30;99.90
782;DHT22;374;52.568;13.402;2024-02-23T22:07:40;8.00;99.90
782;DHT22;374;52.568;13.402;2024-02-23T22:10:06;8.40;99.90
782;DHT22;374;52.568;13.402;2024-02-23T22:12:32;8.70;99.90
782;DHT22;374;52.568;13.402;2024-02-23T22:14:58;9.20;99.90
782;DHT22;374;52.568;13.402;2024-02-23T22:17:24;7.80;99.90
782;DHT22;374;52.568;13.402;2024-02-23T22:19:50;8.30;99.90
782;DHT22;374;52.568;13.402;2024-02-23T22:22:15;8.70;99.90
782;DHT22;374;52.568;13.402;2024-02-23T22:24:41;7.60;99.90
782;DHT22;374;52.568;13.402;2024-02-23T22:27:07;8.90;99.90
782;DHT22;374;52.568;13.402;2024-02-23T22:29:33;9.10;99.90
782;DHT22;374;52.568;13.402;2024-02-23T22:31:58;8.00;99.90
782;DHT22;374;52.568;13.402;2024-02-23T22:34:25;8.10;99.90
782;DHT22;374;52.568;13.402;2024-02-23T22:36:50;8.40;99.90
782;DHT22;374;52.568;13.402;2024-02-23T22:39:17;8.40;99.90
782;DHT22;374;52.568;13.402;2024-02-23T22:41:42;8.50;99.90
782;DHT22;374;52.568;13.402;2024-02-23T22:44:08;8.30;99.90
782;DHT22;374;52.568;13.402;2024-02-23T22:46:33;8.30;99.90
782;DHT22;374;52.568;13.402;2024-02-23T22:48:59;8.30;99.90
782;DHT22;374;52.568;13.402;2024-02-23T22:51:24;8.40;99.90
782;DHT22;374;52.568;13.402;2024-02-23T22:53:50;9.00;99.90
782;DHT22;374;52.568;13.402;2024-02-23T22:56:16;8.10;99.90
782;DHT22;374;52.568;13.402;2024-02-23T22:58:42;8.30;99.90
782;DHT22;374;52.568;13.402;2024-02-23T23:01:07;8.40;99.90
782;DHT22;374;52.568;13.402;2024-02-23T23:03:34;8.30;99.90
782;DHT22;374;52.568;13.402;2024-02-23T23:06:00;8.30;99.90
782;DHT22;374;52.568;13.402;2024-02-23T23:08:25;7.80;99.90
782;DHT22;374;52.568;13.402;2024-02-23T23:10:53;8.20;99.90
782;DHT22;374;52.568;13.402;2024-02-23T23:13:19;8.20;99.90
782;DHT22;374;52.568;13.402;2024-02-23T23:15:44;8.20;99.90
782;DHT22;374;52.568;13.402;2024-02-23T23:18:10;8.20;99.90
782;DHT22;374;52.568;13.402;2024-02-23T23:20:35;9.00;99.90
782;DHT22;374;52.568;13.402;2024-02-23T23:23:01;8.00;99.90
782;DHT22;374;52.568;13.402;2024-02-23T23:25:26;8.60;99.90
782;DHT22;374;52.568;13.402;2024-02-23T23:27:52;7.70;99.90
782;DHT22;374;52.568;13.402;2024-02-23T23:30:18;7.80;99.90
782;DHT22;374;52.568;13.402;2024-02-23T23:32:43;7.70;99.90
782;DHT22;374;52.568;13.402;2024-02-23T23:35:09;7.80;99.90
782;DHT22;374;52.568;13.402;2024-02-23T23:37:35;8.50;99.90
782;DHT22;374;52.568;13.402;2024-02-23T23:40:01;7.40;99.90
782;DHT22;374;52.568;13.402;2024-02-23T23:42:26;7.90;99.90
782;DHT22;374;52.568;13.402;2024-02-23T23:44:52;8.10;99.90
782;DHT22;374;52.568;13.402;2024-02-23T23:47:17;8.20;99.90
782;DHT22;374;52.568;13.402;2024-02-23T23:49:43;8.20;99.90
782;DHT22;374;52.568;13.402;2024-02-23T23:52:09;8.00;99.90
782;DHT22;374;52.568;13.402;2024-02-23T23:54:35;7.90;99.90
782;DHT22;374;52.568;13.402;2024-02-23T23:57:00;8.30;99.90
782;DHT22;374;52.568;13.402;2024-02-23T23:59:26;8.40;99.90
